EMPK1: COTTONWOOD R AT EMPORIA

                                SHEF ID:       EMPK1     COTTONWOOD R AT EMPORIA
STATION TYPE:

STAGE RIV-FLOW BAT-LOAD
ft cfs volt
Ccp-Rev Ccp-Rev Ccp-Rev
(America/Chicago)
04/29 00:00 8.93 3297 12.73
04/29 01:00 8.66 3127 12.73
04/29 02:00 8.44 2990 12.73
04/29 03:00 8.19 2837 12.73
04/29 04:00 7.99 2717 12.65
04/29 05:00 7.79 2598 12.65
04/29 06:00 7.63 2505 12.57
04/29 07:00 7.46 2406 12.57
04/29 08:00 7.31 2321 12.73
04/29 09:00 7.19 2253 13.53
04/29 10:00 7.06 2180 13.68
04/29 11:00 6.95 2120 13.92
04/29 12:00 6.84 2059 13.92
04/29 13:00 6.74 2005 14.00
04/29 14:00 6.65 1957 13.76
04/29 15:00 6.56 1908 13.84
04/29 16:00 6.48 1866 13.92
04/29 17:00 6.39 1819 13.68
04/29 18:00 6.31 1777 13.84
04/29 19:00 6.24 1741 13.44
04/29 20:00 6.17 1705 13.29
04/29 21:00 6.09 1664 12.89
04/29 22:00 6.03 1634 12.81
04/29 23:00 5.97 1603 12.81
Data processed at Thu 30Apr2026 04:36 GMT

NOTICE: If you are parsing this page

Please convert to using our Data API. Starting early 2026 we will be migrating to: https://water.usace.army.mil with modern pages rendered in JavaScript. When this migration completes you will no longer be able to scrape this page! CWMSDataAPI (CDA)

Timeseries IDs (TSIDs)

TSIDs used from left to right in the data table
CEMP.Stage.Inst.1Hour.0.Ccp-Rev
CEMP.Flow.Inst.1Hour.0.Ccp-Rev
CEMP.Volt-Battery Load.Inst.1Hour.0.Ccp-Rev

                            

All information presented herein is the property of the government of the United States of America and may be revised or deleted at any time without prior notice. Dissemination of this information without the expressed written consent of the Public Affairs Office, Tulsa District U.S. Army Corps of Engineers is strictly prohibited. These data are gathered electronically and, as presented, have NOT undergone any form of quality control. These data are NOT guaranteed to be valid or correct.